• Join FlightAware (Why Join?)
  • Login
  • US Flag GB Flag 
12:18 EDT


 

Airport Tracker/Info


-or-


 

Live Flight TrackerFlight Track Log ✈ RPA3392 ✈ 05-May-2013 ✈ KMSP - KDCA

Flight Track Log - Related Links

Times and Time Zones

All times are in EDT time to prevent confusion due to time zone crossing. See the RPA3392 flight status page for this flight to view local times or setup timezone preferences in your user account.

Time Position Orientation Groundspeed Altitude Reporting Facility
EDT Latitude Longitude Course Direction KTS MPH feet Rate Location/Type
17:52 44.9475 -93.2417 117° Southeast 191 220 3,300  Level Minneapolis Center
17:53 44.7625 -92.7863 111° Southeast  Level Estimated
17:53 45.0172 -93.2397 North 251 289 5,400  Level Minneapolis Center
17:54 44.7223 -92.6415 113° Southeast  Level Estimated
17:54 45.0472 -93.1522 64° Northeast 279 321 8,400  Level Minneapolis Center
17:55 44.6626 -92.5109 123° Southeast  Level FlightAware Approximate
17:55 45.0092 -93.0792 126° Southeast 286 329 10,500  Level Minneapolis Center
17:56 44.6098 -92.3644 117° Southeast  Level FlightAware Approximate
17:56 44.9431 -92.9500 126° Southeast 345 397 12,500  Level Minneapolis Center
17:57 44.5618 -92.2324 117° Southeast  Level FlightAware Approximate
17:57 44.8850 -92.8375 126° Southeast 351 404 15,000  Level Minneapolis Center
17:58 44.8136 -92.6986 126° Southeast 363 418 17,500 2,160 Climbing Minneapolis Center
17:59 44.7522 -92.5819 127° Southeast 368 423 19,500 1,740 Climbing Minneapolis Center
18:00 44.6894 -92.4617 126° Southeast 375 432 21,200 1,620 Climbing Minneapolis Center
18:01 44.6247 -92.3375 126° Southeast 384 442 22,900 1,560 Climbing Minneapolis Center
18:02 44.5578 -92.2111 127° Southeast 396 456 24,500 1,380 Climbing Minneapolis Center
18:03 44.4903 -92.0822 126° Southeast 407 468 25,800 1,200 Climbing Minneapolis Center
18:04 44.4219 -91.9494 126° Southeast 417 480 27,000 1,200 Climbing Minneapolis Center
18:05 44.3431 -91.7831 124° Southeast 429 494 28,300 1,200 Climbing Minneapolis Center
18:06 44.2878 -91.6336 117° Southeast 433 498 29,500 1,140 Climbing Minneapolis Center
18:07 44.2322 -91.4886 118° Southeast 430 495 30,900 1,080 Climbing Minneapolis Center
18:08 44.1661 -91.3150 118° Southeast 425 489 32,000 1,020 Climbing Minneapolis Center
18:09 44.1125 -91.1756 118° Southeast 425 489 33,100 1,020 Climbing Minneapolis Center
18:10 44.0581 -91.0364 119° Southeast 418 481 34,100 900 Climbing Minneapolis Center
18:11 43.9925 -90.8669 118° Southeast 417 480 35,000 420 Climbing Minneapolis Center
18:12 43.9367 -90.7269 119° Southeast 417 480 35,000  Level Minneapolis Center
18:13 43.8825 -90.5692 115° Southeast 434 499 35,000  Level Minneapolis Center
18:14 43.8531 -90.4031 104° East 445 512 35,000  Level Minneapolis Center
18:15 43.8200 -90.2361 105° East 449 517 35,000  Level Minneapolis Center
18:16 43.7869 -90.0689 105° East 451 519 35,000  Level Minneapolis Center
18:17 43.7592 -89.9303 105° East 450 518 35,000  Level Minneapolis Center
18:18 43.7169 -89.7086 105° East 448 516 35,000  Level Minneapolis Center
18:20 43.6842 -89.5428 105° East 446 513 35,000  Level Minneapolis Center
18:21 43.6458 -89.3525 105° East 443 510 35,000  Level Minneapolis Center
18:22 43.6119 -89.1886 106° East 443 510 35,000  Level Minneapolis Center
18:23 43.5778 -89.0236 106° East 445 512 35,000  Level Minneapolis Center
18:24 43.5319 -88.8039 106° East 447 514 35,000  Level Chicago Center
18:25 43.4978 -88.6403 106° East 446 513 35,000  Level Chicago Center
18:26 43.4592 -88.4611 106° East 454 522 35,000  Level Chicago Center
18:27 43.4247 -88.2978 106° East 445 512 35,000  Level Chicago Center
18:28 43.3892 -88.1342 107° East 445 512 35,000  Level Chicago Center
18:29 43.3542 -87.9681 106° East 450 518 35,000  Level Chicago Center
18:30 43.3181 -87.8036 107° East 449 517 35,000  Level Chicago Center
18:31 43.2822 -87.6397 107° East 450 518 35,000  Level Chicago Center
18:33 43.2418 -87.4643 107° East  Level FlightAware Approximate
18:33 43.2053 -87.2981 107° East 446 513 35,000  Level Chicago Center
18:34 43.1694 -87.1344 107° East 449 517 35,000  Level Chicago Center
18:35 43.1333 -86.9739 107° East 442 509 35,000  Level Chicago Center
18:36 43.0894 -86.7822 107° East 442 509 35,000  Level Chicago Center
18:37 43.0525 -86.6222 107° East 442 509 35,000  Level Chicago Center
18:38 43.0156 -86.4614 107° East 445 512 35,000  Level Chicago Center
18:40 42.9786 -86.3031 108° East 443 510 35,000  Level Chicago Center
18:41 42.9281 -86.1525 115° Southeast 444 511 35,000  Level Chicago Center
18:42 42.8631 -85.9750 116° Southeast 447 514 35,000  Level Chicago Center
18:43 42.8094 -85.8281 116° Southeast 442 509 35,000  Level Chicago Center
18:44 42.7547 -85.6800 117° Southeast 441 507 35,000  Level Chicago Center
18:45 42.6989 -85.5319 117° Southeast 443 510 35,000  Level Chicago Center
18:46 42.6328 -85.3525 117° Southeast 445 512 35,000  Level Chicago Center
18:47 42.5761 -85.2053 118° Southeast 442 509 35,000  Level Chicago Center
18:48 42.5211 -85.0569 117° Southeast 441 507 35,000  Level Chicago Center
18:49 42.4650 -84.9139 118° Southeast 432 497 35,000  Level Chicago Center
18:50 42.4103 -84.7714 117° Southeast 429 494 35,000  Level Chicago Center
18:51 42.3614 -84.6469 118° Southeast 434 499 35,000  Level Cleveland Center
18:52 42.3036 -84.5056 119° Southeast 429 494 35,000  Level Cleveland Center
18:53 42.2481 -84.3592 117° Southeast 429 494 35,000  Level Cleveland Center
18:54 42.1922 -84.2183 118° Southeast 424 488 35,000  Level Cleveland Center
18:55 42.1361 -84.0778 118° Southeast 424 488 35,000  Level Cleveland Center
18:56 42.0797 -83.9350 118° Southeast 424 488 35,000  Level Cleveland Center
18:57 42.0233 -83.7922 118° Southeast 424 488 35,000  Level Cleveland Center
18:58 41.9647 -83.6494 119° Southeast 429 494 35,000  Level Cleveland Center
18:59 41.9103 -83.5075 117° Southeast 429 494 35,000  Level Cleveland Center
19:00 41.8533 -83.3653 118° Southeast 429 494 35,000  Level Cleveland Center
19:01 41.7961 -83.2264 119° Southeast 424 488 35,000  Level Cleveland Center
19:02 41.7389 -83.0850 118° Southeast 424 488 35,000  Level Cleveland Center
19:03 41.6814 -82.9436 119° Southeast 424 488 35,000  Level Cleveland Center
19:04 41.6175 -82.7914 119° Southeast 429 494 35,000  Level Cleveland Center
19:05 41.5597 -82.6506 119° Southeast 429 494 35,000  Level Cleveland Center
19:06 41.4975 -82.5128 121° Southeast 428 493 35,000  Level Cleveland Center
19:07 41.4119 -82.3967 134° Southeast 428 493 35,000  Level Cleveland Center
19:08 41.3281 -82.2892 136° Southeast 428 493 35,000  Level Cleveland Center
19:09 41.2400 -82.1819 138° Southeast 428 493 35,000  Level Cleveland Center
19:10 41.1642 -82.0808 135° Southeast 428 493 35,000  Level Cleveland Center
19:11 41.0678 -81.9631 137° Southeast 433 498 35,000  Level Cleveland Center
19:12 40.9814 -81.8567 137° Southeast 433 498 35,000  Level Cleveland Center
19:13 40.8950 -81.7478 136° Southeast 433 498 35,000  Level Cleveland Center
19:14 40.8064 -81.6392 137° Southeast 433 498 35,000  Level Cleveland Center
19:15 40.7197 -81.5311 137° Southeast 433 498 35,000  Level Cleveland Center
19:16 40.6353 -81.4231 136° Southeast 428 493 35,000 -240 Level Cleveland Center
19:17 40.5589 -81.3264 136° Southeast 423 487 34,600 -840 Descending Cleveland Center
19:18 40.4719 -81.2217 137° Southeast 423 487 33,400 -840 Descending Cleveland Center
19:19 40.3808 -81.1119 137° Southeast 429 494 33,000 -240 Descending Cleveland Center
19:20 40.2936 -81.0022 136° Southeast 429 494 33,000  Level Cleveland Center
19:21 40.2042 -80.8983 138° Southeast 429 494 33,000  Level Cleveland Center
19:22 40.1128 -80.7894 138° Southeast 435 501 33,000 -300 Level Cleveland Center
19:23 40.0233 -80.6781 136° Southeast 440 506 32,500 -1,020 Descending Cleveland Center
19:24 39.9339 -80.5722 138° Southeast 440 506 31,000 -780 Descending Cleveland Center
19:25 39.8419 -80.4558 136° Southeast 440 506 31,000  Level Cleveland Center
19:26 39.7750 -80.3183 122° Southeast 440 506 31,000  Level Cleveland Center
19:27 39.7100 -80.1783 121° Southeast 453 521 31,000  Level Cleveland Center
19:29 39.5742 -79.8967 122° Southeast 458 527 31,000  Level Washington Center
19:30 39.5083 -79.7583 122° Southeast 458 527 31,000  Level Washington Center
19:31 39.4381 -79.6197 123° Southeast 458 527 31,000  Level Washington Center
19:32 39.3694 -79.4817 123° Southeast 463 533 31,000 -540 Level Washington Center
19:33 39.3050 -79.3522 123° Southeast 468 539 30,000 -1,740 Descending Washington Center
19:34 39.2453 -79.1883 115° Southeast 468 539 27,600 -1,860 Descending Washington Center
19:35 39.2292 -79.0319 98° East 448 516 26,400 -1,500 Descending Washington Center
19:36 39.2167 -78.8733 96° East 442 509 24,700 -2,040 Descending Washington Center
19:37 39.2000 -78.7253 98° East 437 503 22,400 -2,280 Descending Washington Center
19:38 39.1850 -78.5747 97° East 424 488 20,200 -2,220 Descending Washington Center
19:39 39.1717 -78.4350 97° East 411 473 18,000 -1,920 Descending Washington Center
19:40 39.1494 -78.3083 103° East 384 442 16,400 -1,200 Descending Washington Center
19:41 39.1208 -78.1947 108° East 355 409 15,600 -900 Descending Washington Center
19:42 39.0919 -78.0789 108° East 338 389 14,700 -1,020 Descending Washington Center
19:43 39.0631 -77.9683 109° East 333 383 13,600 -1,140 Descending Washington Center
19:44 39.0339 -77.8522 108° East 321 369 12,500 -1,320 Descending Washington Center
19:45 39.0086 -77.7581 109° East 309 356 11,000 -780 Descending Washington Center
19:46 38.9814 -77.6478 108° East 302 348 11,000 -360 Level Washington Center
19:46 38.9667 -77.6167 121° Southeast 277 319 10,600 -1,560 Descending Potomac TRACON
19:47 38.9500 -77.5167 102° East 277 319 9,100 -1,380 Descending Potomac TRACON
19:48 38.9000 -77.4333 128° Southeast 274 315 7,900 -1,260 Descending Potomac TRACON
19:49 38.8667 -77.3500 117° Southeast 261 300 6,600 -960 Descending Potomac TRACON
19:50 38.8333 -77.2833 123° Southeast 264 304 6,000 -300 Descending Potomac TRACON
19:51 38.8000 -77.2000 117° Southeast 264 304 6,000 -480 Level Potomac TRACON
19:52 38.7667 -77.1167 117° Southeast 222 255 5,100 -1,380 Descending Potomac TRACON
19:53 38.7167 -77.1167 180° South 204 235 3,300 -1,320 Descending Potomac TRACON
19:54 38.6667 -77.1000 165° South 212 244 2,500 -420 Descending Potomac TRACON
19:55 38.6833 -77.0500 67° East 211 243 2,500 -300 Level Potomac TRACON
19:56 38.7500 -77.0333 11° North 202 232 2,000 -780 Descending Potomac TRACON
19:57 38.8000 -77.0333 360° North 163 188 1,000 -1,020 Descending Potomac TRACON